Time;durP1;ratioP1;P1;durP2;ratioP2;P2;SDS_P1;SDS_P2;PMS_P1;PMS_P2;Temp;Humidity;BMP_temperature;BMP_pressure;BME280_temperature;BME280_humidity;BME280_pressure;Samples;Min_cycle;Max_cycle;Signal;HPM_P1;HPM_P2
2021/07/26 00:00:08;;;;;;;6.63;6.03;;;;;;;19.56;56.29;99033.13;531019;1092;115793;-58
2021/07/26 00:10:15;;;;;;;7.83;5.80;;;;;;;19.44;56.24;99030.83;531023;1090;117218;-58
2021/07/26 00:20:22;;;;;;;6.53;5.87;;;;;;;19.38;56.91;99012.05;531032;1092;116887;-58
2021/07/26 00:30:28;;;;;;;6.87;6.03;;;;;;;19.35;57.18;99018.53;531058;1092;117915;-58
2021/07/26 00:40:34;;;;;;;8.33;6.18;;;;;;;19.34;57.30;99018.72;530311;1092;116205;-58
2021/07/26 00:50:41;;;;;;;6.93;5.88;;;;;;;19.27;57.78;99015.88;531010;1092;116425;-59
2021/07/26 01:00:47;;;;;;;8.00;7.27;;;;;;;19.14;58.36;99030.53;531026;1091;115849;-58
2021/07/26 01:10:54;;;;;;;7.13;5.57;;;;;;;19.00;58.98;99025.89;530385;1089;116660;-58
2021/07/26 01:21:01;;;;;;;7.45;6.55;;;;;;;18.98;59.77;99026.02;531035;1090;115782;-58
2021/07/26 01:31:10;;;;;;;7.45;6.85;;;;;;;18.97;60.07;99021.70;531079;1092;115825;-58
2021/07/26 01:41:20;;;;;;;9.25;7.73;;;;;;;18.92;60.86;99037.34;530599;1092;115622;-58
2021/07/26 01:51:38;;;;;;;6.97;6.37;;;;;;;18.89;61.29;99027.86;531041;1089;116264;-58
2021/07/26 02:01:45;;;;;;;8.10;7.35;;;;;;;18.94;61.61;99043.32;530333;1089;116229;-58
2021/07/26 02:11:51;;;;;;;8.53;7.63;;;;;;;19.00;61.97;99018.75;531106;1092;116319;-58
2021/07/26 02:21:58;;;;;;;8.90;8.03;;;;;;;19.03;62.41;98989.15;531017;1090;115811;-58
2021/07/26 02:32:05;;;;;;;11.17;7.67;;;;;;;19.01;62.59;98975.19;530303;1089;116358;-58
2021/07/26 02:42:12;;;;;;;9.50;8.50;;;;;;;18.87;63.36;98997.94;531035;1091;115881;-58
2021/07/26 02:52:18;;;;;;;9.13;8.13;;;;;;;18.62;63.94;99003.26;530302;1092;116493;-57
2021/07/26 03:02:25;;;;;;;9.58;8.63;;;;;;;18.47;64.71;99000.41;530968;1090;117408;-58
2021/07/26 03:12:32;;;;;;;9.60;8.60;;;;;;;18.48;64.94;99003.91;531048;1088;116852;-58
2021/07/26 03:23:02;;;;;;;10.38;9.48;;;;;;;18.53;65.52;98998.11;530358;1090;116619;-58
2021/07/26 03:33:08;;;;;;;9.13;8.30;;;;;;;18.57;65.51;99007.41;531089;1090;117028;-58
2021/07/26 03:43:15;;;;;;;11.83;10.73;;;;;;;18.73;65.54;99006.59;531110;1089;115945;-60
2021/07/26 03:53:21;;;;;;;11.13;9.87;;;;;;;18.84;65.60;99016.05;531061;1089;117865;-58
2021/07/26 04:03:30;;;;;;;9.23;8.33;;;;;;;18.83;65.99;99044.49;531007;1089;117934;-58
2021/07/26 04:13:38;;;;;;;10.63;9.27;;;;;;;18.82;66.18;99050.81;530288;1091;116804;-58
2021/07/26 04:23:45;;;;;;;8.88;7.98;;;;;;;18.86;66.47;99049.47;531050;1092;116172;-58
2021/07/26 04:33:52;;;;;;;11.60;10.40;;;;;;;19.04;66.12;99057.31;531002;1090;116153;-58
2021/07/26 04:43:58;;;;;;;10.80;9.60;;;;;;;19.24;66.02;99064.13;530271;1092;116416;-58
2021/07/26 04:54:04;;;;;;;10.13;9.13;;;;;;;19.35;65.60;99060.30;531024;1089;116560;-58
2021/07/26 05:04:11;;;;;;;10.73;9.73;;;;;;;19.50;65.46;99058.61;531065;1088;116353;-58
2021/07/26 05:14:17;;;;;;;12.07;10.87;;;;;;;19.56;65.83;99059.76;531043;1090;116571;-58
2021/07/26 05:24:25;;;;;;;10.90;9.80;;;;;;;19.56;65.41;99055.25;531070;1089;116134;-58
2021/07/26 05:34:31;;;;;;;12.20;10.17;;;;;;;19.59;65.79;99051.42;530376;1090;116892;-58
2021/07/26 05:44:41;;;;;;;11.67;9.73;;;;;;;19.72;65.30;99061.55;531017;1090;117120;-59
2021/07/26 05:54:48;;;;;;;11.00;9.57;;;;;;;19.78;65.43;99052.86;531054;1090;115541;-59
2021/07/26 06:04:54;;;;;;;12.73;8.87;;;;;;;19.93;65.38;99062.85;530393;1090;116486;-59
2021/07/26 06:15:01;;;;;;;11.43;9.70;;;;;;;19.96;65.40;99071.31;531033;1089;116362;-58
2021/07/26 06:25:12;;;;;;;12.37;11.00;;;;;;;20.02;65.37;99056.47;531032;1090;117156;-58
2021/07/26 06:35:18;;;;;;;11.73;9.67;;;;;;;20.19;65.60;99072.40;531094;1091;117558;-58
2021/07/26 06:45:25;;;;;;;10.63;9.53;;;;;;;20.34;65.45;99067.17;531019;1091;117690;-58
2021/07/26 06:55:32;;;;;;;13.80;9.00;;;;;;;20.39;65.46;99073.63;530268;1090;116841;-57
2021/07/26 07:05:38;;;;;;;10.97;8.80;;;;;;;20.62;65.19;99064.84;531042;1090;116594;-57
2021/07/26 07:15:44;;;;;;;10.57;8.37;;;;;;;20.93;64.85;99079.16;531029;1089;116118;-58
2021/07/26 07:25:50;;;;;;;10.33;9.43;;;;;;;21.49;64.26;99083.35;530322;1090;117455;-59
2021/07/26 07:35:57;;;;;;;10.53;9.53;;;;;;;21.93;62.99;99090.59;531076;1090;116129;-58
2021/07/26 07:46:04;;;;;;;11.37;9.00;;;;;;;22.57;62.25;99095.49;531008;1090;116508;-59
2021/07/26 07:56:11;;;;;;;14.80;8.47;;;;;;;23.69;60.80;99085.15;530233;1090;116535;-59
2021/07/26 08:06:18;;;;;;;9.57;7.80;;;;;;;28.59;56.13;99079.31;531023;1092;117078;-59
2021/07/26 08:16:25;;;;;;;10.17;7.07;;;;;;;30.37;49.85;99078.51;530280;1092;116532;-59
2021/07/26 08:26:36;;;;;;;8.00;6.60;;;;;;;31.03;46.89;99079.95;531003;1090;116517;-59
2021/07/26 08:36:41;;;;;;;;;;;;;;;30.33;45.73;99080.88;531094;1090;117341;-58
2021/07/26 08:46:49;;;;;;;6.87;6.07;;;;;;;31.16;44.78;99095.08;530674;1090;102543;-57
2021/07/26 08:56:56;;;;;;;9.30;5.50;;;;;;;30.86;43.52;99088.91;531076;1090;116559;-59
2021/07/26 09:07:07;;;;;;;7.18;5.43;;;;;;;30.59;43.84;99103.04;531022;1090;116610;-59
2021/07/26 09:17:14;;;;;;;6.10;5.50;;;;;;;30.88;43.30;99091.38;530343;1090;116351;-59
2021/07/26 09:27:19;;;;;;;;;;;;;;;30.54;43.20;99081.27;531043;1091;116324;-59
2021/07/26 09:37:25;;;;;;;6.35;5.70;;;;;;;30.26;42.91;99079.38;530623;1093;102712;-57
2021/07/26 09:47:32;;;;;;;5.93;5.48;;;;;;;29.68;42.97;99081.95;531029;1090;116312;-58
2021/07/26 09:57:41;;;;;;;5.43;5.03;;;;;;;29.37;43.13;99090.98;531050;1089;116232;-58
2021/07/26 10:07:47;;;;;;;5.17;4.80;;;;;;;29.62;42.64;99089.97;530311;1090;116534;-58
2021/07/26 10:17:52;;;;;;;;;;;;;;;29.88;41.88;99092.38;531061;1090;116665;-58
2021/07/26 10:28:02;;;;;;;5.40;4.70;;;;;;;29.69;42.03;99089.01;531341;1089;102432;-57
2021/07/26 10:38:10;;;;;;;4.67;4.27;;;;;;;29.69;41.69;99091.71;530322;1088;117264;-58
2021/07/26 10:48:36;;;;;;;4.43;4.03;;;;;;;29.72;41.69;99093.94;531089;1090;116227;-58
2021/07/26 10:59:05;;;;;;;7.20;4.90;;;;;;;29.72;41.38;99080.41;530265;1092;115950;-57
2021/07/26 11:09:43;;;;;;;5.13;4.63;;;;;;;29.90;41.14;99090.29;530970;1092;116902;-58
2021/07/26 11:19:58;;;;;;;6.43;5.87;;;;;;;29.78;41.13;99087.59;529925;1090;116612;-58
2021/07/26 11:30:08;;;;;;;5.90;5.40;;;;;;;29.83;41.88;99086.88;526798;1090;116390;-58
2021/07/26 11:40:16;;;;;;;6.17;5.53;;;;;;;30.27;41.42;99075.61;531033;1092;116542;-58
2021/07/26 11:50:38;;;;;;;5.63;5.23;;;;;;;29.79;41.36;99075.70;531051;1089;117375;-59
2021/07/26 12:00:46;;;;;;;5.43;5.07;;;;;;;29.98;41.31;99068.25;531036;1091;116031;-58
2021/07/26 12:10:52;;;;;;;8.03;5.40;;;;;;;29.86;40.87;99053.92;530375;1089;116338;-58
2021/07/26 12:21:00;;;;;;;6.93;5.53;;;;;;;29.85;40.90;99041.46;531074;1089;116195;-59
2021/07/26 12:31:26;;;;;;;5.90;5.43;;;;;;;29.26;41.20;99053.14;531027;1090;115833;-58
2021/07/26 12:41:33;;;;;;;5.63;5.23;;;;;;;28.95;41.90;99047.84;531043;1090;117411;-58
2021/07/26 12:51:38;;;;;;;;;;;;;;;29.17;42.61;99044.57;531127;1090;116551;-58
2021/07/26 13:01:50;;;;;;;7.30;5.20;;;;;;;29.34;41.56;99053.61;530440;1090;101862;-58
2021/07/26 13:11:56;;;;;;;6.07;5.47;;;;;;;29.76;41.94;99057.25;530825;1090;116975;-58
2021/07/26 13:22:04;;;;;;;8.10;5.87;;;;;;;30.00;41.03;99043.66;530795;1090;118141;-58
2021/07/26 13:32:11;;;;;;;5.40;4.90;;;;;;;29.57;40.41;99045.76;529995;1089;119222;-58
2021/07/26 13:42:18;;;;;;;5.48;5.03;;;;;;;29.78;41.01;99030.78;530764;1089;116233;-58
2021/07/26 13:52:24;;;;;;;5.15;4.75;;;;;;;30.46;39.72;99022.06;530080;1090;116500;-58
2021/07/26 14:02:31;;;;;;;12.20;4.87;;;;;;;30.42;39.73;99024.46;531009;1090;116562;-58
2021/07/26 14:12:38;;;;;;;3.90;3.57;;;;;;;29.97;41.06;99039.55;531066;1089;116340;-59
2021/07/26 14:22:45;;;;;;;4.18;3.88;;;;;;;30.03;41.22;99030.48;530333;1089;116303;-58
2021/07/26 14:32:51;;;;;;;4.50;3.90;;;;;;;29.65;41.19;99037.27;531021;1090;117287;-58
2021/07/26 14:42:58;;;;;;;5.15;3.60;;;;;;;29.73;41.35;99023.38;531102;1089;116956;-58
2021/07/26 14:53:04;;;;;;;6.60;4.27;;;;;;;29.56;41.73;99023.29;529811;1090;116437;-59
2021/07/26 15:03:11;;;;;;;4.90;4.35;;;;;;;29.16;42.84;99034.81;531053;1090;117228;-59
2021/07/26 15:13:19;;;;;;;5.15;4.75;;;;;;;29.01;43.12;99030.67;529086;1089;115889;-57
2021/07/26 15:23:28;;;;;;;7.60;4.60;;;;;;;29.58;42.99;99031.98;531071;1090;116246;-58
2021/07/26 15:33:36;;;;;;;5.43;4.47;;;;;;;29.50;43.00;99033.17;531061;1088;116020;-58
2021/07/26 15:43:43;;;;;;;7.53;5.05;;;;;;;29.19;42.83;99026.23;530297;1090;116108;-58
2021/07/26 15:53:49;;;;;;;5.90;5.27;;;;;;;28.82;43.23;99027.25;531062;1092;116255;-58
2021/07/26 16:03:56;;;;;;;6.00;5.40;;;;;;;28.34;43.25;99024.41;530945;1091;116445;-58
2021/07/26 16:14:02;;;;;;;7.97;6.93;;;;;;;28.05;43.91;99020.62;530338;1089;177468;-58
2021/07/26 16:24:09;;;;;;;7.23;5.63;;;;;;;28.09;44.94;99016.41;531029;1090;116702;-58
2021/07/26 16:34:17;;;;;;;6.45;5.40;;;;;;;27.87;44.96;99010.67;531061;1089;117083;-58
2021/07/26 16:44:24;;;;;;;6.20;5.67;;;;;;;27.67;45.56;99001.78;531058;1089;116227;-58
2021/07/26 16:54:30;;;;;;;6.43;5.83;;;;;;;27.37;46.19;99017.84;530924;1089;116027;-59
2021/07/26 17:04:36;;;;;;;8.35;7.53;;;;;;;27.18;46.77;99033.97;530332;1089;116760;-59
2021/07/26 17:14:43;;;;;;;6.70;5.57;;;;;;;27.13;46.94;99047.30;530963;1090;116100;-59
2021/07/26 17:24:49;;;;;;;6.33;5.73;;;;;;;26.74;47.58;99043.83;531045;1089;116372;-59
2021/07/26 17:34:56;;;;;;;11.23;6.33;;;;;;;26.42;48.71;99047.34;530322;1088;116682;-59
2021/07/26 17:45:02;;;;;;;25.57;9.30;;;;;;;26.08;50.23;99052.03;531037;1089;116943;-59
2021/07/26 17:55:10;;;;;;;15.37;8.83;;;;;;;25.76;50.80;99050.08;531124;1089;116574;-61
2021/07/26 18:05:17;;;;;;;10.73;8.90;;;;;;;25.45;51.37;99043.50;531066;1088;117035;-59
2021/07/26 18:15:24;;;;;;;9.10;8.20;;;;;;;25.10;53.12;99033.80;531026;1090;116487;-59
2021/07/26 18:25:31;;;;;;;11.27;8.33;;;;;;;24.80;54.05;99036.08;530316;1089;119657;-59
2021/07/26 18:35:37;;;;;;;17.73;9.88;;;;;;;24.43;55.43;99039.91;531060;1090;116203;-59
2021/07/26 18:45:44;;;;;;;11.43;9.40;;;;;;;24.03;55.89;99035.25;531005;1090;116506;-60
2021/07/26 18:55:50;;;;;;;14.93;10.40;;;;;;;23.74;57.46;99047.04;530332;1089;116503;-59
2021/07/26 19:05:57;;;;;;;12.68;10.40;;;;;;;23.40;58.39;99062.92;531025;1090;117634;-59
2021/07/26 19:16:03;;;;;;;14.60;10.07;;;;;;;23.19;58.85;99082.48;531115;1090;116809;-59
2021/07/26 19:26:09;;;;;;;22.57;11.20;;;;;;;22.99;59.35;99093.88;530304;1090;116626;-59
2021/07/26 19:36:16;;;;;;;18.93;11.83;;;;;;;22.79;59.86;99115.06;531050;1089;117161;-58
2021/07/26 19:46:22;;;;;;;16.87;12.03;;;;;;;22.61;60.21;99110.98;530304;1090;117238;-58
2021/07/26 19:56:30;;;;;;;17.37;10.20;;;;;;;22.48;60.68;99100.95;531043;1089;117864;-58
2021/07/26 20:06:37;;;;;;;16.87;11.57;;;;;;;22.39;60.85;99105.55;531068;1089;116915;-58
2021/07/26 20:16:44;;;;;;;16.07;13.53;;;;;;;22.31;61.47;99088.80;530350;1090;116835;-58
2021/07/26 20:26:50;;;;;;;16.00;11.57;;;;;;;22.17;62.58;99090.47;531091;1090;117604;-58
2021/07/26 20:36:57;;;;;;;11.53;10.37;;;;;;;22.04;63.19;99091.96;531130;1089;116546;-58
2021/07/26 20:47:04;;;;;;;14.53;11.67;;;;;;;21.93;64.12;99077.23;530265;1089;116654;-58
2021/07/26 20:57:11;;;;;;;14.75;9.88;;;;;;;21.80;65.09;99090.39;531082;1089;116585;-58
2021/07/26 21:07:18;;;;;;;12.97;11.53;;;;;;;21.69;65.91;99094.36;530481;1090;118557;-52
2021/07/26 21:17:31;;;;;;;11.80;10.70;;;;;;;21.60;66.57;99103.43;531023;1090;117250;-58
2021/07/26 21:27:38;;;;;;;11.77;10.67;;;;;;;21.37;66.51;99109.66;532653;1088;117470;-58
2021/07/26 21:37:44;;;;;;;11.97;10.87;;;;;;;21.22;67.35;99109.60;531810;1088;117646;-59
2021/07/26 21:47:51;;;;;;;13.23;11.83;;;;;;;21.09;67.97;99113.70;532647;1088;117087;-59
2021/07/26 21:57:58;;;;;;;12.63;10.43;;;;;;;20.92;68.18;99113.00;532616;1089;116222;-59
2021/07/26 22:08:04;;;;;;;13.30;11.93;;;;;;;20.83;68.30;99108.72;531877;1089;117167;-58
2021/07/26 22:18:11;;;;;;;13.20;11.20;;;;;;;20.72;69.28;99094.78;532596;1088;116582;-59
2021/07/26 22:28:17;;;;;;;13.00;11.67;;;;;;;20.63;69.63;99098.50;531934;1089;118097;-52
2021/07/26 22:38:24;;;;;;;13.13;11.97;;;;;;;20.28;69.84;99096.17;532639;1089;116532;-57
2021/07/26 22:48:31;;;;;;;14.17;12.67;;;;;;;20.19;70.48;99102.53;532650;1089;117466;-57
2021/07/26 22:58:37;;;;;;;13.63;10.80;;;;;;;20.15;70.53;99098.56;531803;1088;118544;-58
2021/07/26 23:08:44;;;;;;;13.93;12.53;;;;;;;20.08;70.56;99092.25;532639;1089;117274;-59
2021/07/26 23:18:51;;;;;;;17.90;13.57;;;;;;;20.09;71.85;99089.42;532600;1088;117389;-58
2021/07/26 23:28:57;;;;;;;13.00;11.23;;;;;;;20.04;71.79;99078.47;531912;1088;116874;-59
2021/07/26 23:39:05;;;;;;;12.67;11.37;;;;;;;20.00;71.97;99071.80;532642;1088;116932;-60
2021/07/26 23:49:12;;;;;;;12.20;11.13;;;;;;;19.89;71.84;99083.64;532618;1088;116174;-59
2021/07/26 23:59:18;;;;;;;11.73;10.50;;;;;;;19.74;71.56;99104.81;532429;1088;116598;-59
